Latest Weather Observations for Yarrawonga

IDN60801

Issued at 4:02 pm EST Wednesday 26 April 2017 (issued every 30 minutes, with the page automatically refreshed every 10 minutes)

About weather observations | Map of weather stations | Latest weather observations for NSW | Other Formats
Station Details ID: 081124 Name: YARRAWONGA Lat: -36.03 Lon: 146.03 Height: 128.9 m
Data from the previous 72 hours. | See also: Recent months at Yarrawonga
Date/Time
EST
Temp
°C
App
Temp
°C
Dew
Point
°C
Rel
Hum
%
Delta-T
°C
Wind Press
QNH
hPa
Press
MSL
hPa
Rain since
9am
mm
Dir  Spd
km/h
Gust
km/h
Spd
kts
Gust
kts
26/04:00pm 14.2 6.8 6.8 61 3.6 SW 35 44 19 24 1012.1 1011.9 0.0
26/03:30pm 14.2 6.0 6.6 60 3.7 SW 39 54 21 29 1011.7 1011.5 0.0
26/03:02pm 13.4 4.2 5.6 59 3.7 SSW 43 61 23 33 1011.2 1011.0 0.0
26/03:00pm 13.5 4.1 5.4 58 3.8 SSW 44 61 24 33 1011.1 1010.9 0.0
26/02:58pm 13.8 4.6 5.4 57 4.0 SSW 43 61 23 33 1011.1 1010.9 0.0
26/02:30pm 14.5 6.1 7.3 62 3.6 SW 41 54 22 29 1010.5 1010.3 0.0
26/02:00pm 14.5 6.2 7.8 64 3.4 SW 41 56 22 30 1010.2 1010.0 0.0
26/01:30pm 14.3 7.3 8.3 67 3.0 SW 35 46 19 25 1009.8 1009.6 0.0
26/01:00pm 14.2 7.8 8.6 69 2.8 SW 32 43 17 23 1009.5 1009.3 0.0
26/12:30pm 14.8 7.4 8.5 66 3.2 SSW 37 50 20 27 1009.2 1009.0 0.0
26/12:00pm 14.2 6.4 8.2 67 3.0 SW 39 52 21 28 1009.0 1008.8 0.0
26/11:30am 14.5 8.0 8.9 69 2.9 SSW 33 46 18 25 1008.9 1008.7 0.0
26/11:00am 13.3 7.8 9.2 76 2.1 SW 28 39 15 21 1008.7 1008.5 0.0
26/10:30am 13.0 8.4 9.8 81 1.6 SW 24 33 13 18 1008.6 1008.4 0.0
26/10:00am 11.9 8.2 10.0 88 1.0 WSW 20 24 11 13 1008.4 1008.2 0.0
26/09:30am 11.8 8.7 10.4 91 0.7 SW 17 22 9 12 1008.3 1008.1 0.0
26/09:00am 11.0 9.0 10.1 94 0.5 SW 11 17 6 9 1008.0 1007.8 16.6
26/08:30am 10.5 8.4 9.7 95 0.4 W 11 15 6 8 1007.9 1007.7 16.6
26/08:00am 10.4 8.3 9.6 95 0.4 SW 11 15 6 8 1007.4 1007.2 16.6
26/07:30am 10.3 7.0 9.4 94 0.5 WSW 17 22 9 12 1006.9 1006.7 16.4
26/07:00am 10.3 5.3 9.4 94 0.5 SW 26 37 14 20 1006.5 1006.4 16.2
26/06:30am 10.2 4.1 9.9 98 0.2 W 32 43 17 23 1007.1 1006.9 16.2
26/06:21am 10.4 3.8 9.9 97 0.3 W 35 87 19 47 1007.2 1007.0 15.6
26/06:17am 11.7 7.2 11.4 98 0.2 NW 26 87 14 47 1006.7 1006.6 15.2
26/06:00am 12.7 11.8 12.7 100 0.0 NW 9 13 5 7 1005.7 1005.5 14.2
26/05:30am 12.8 11.5 12.6 99 0.1 NW 11 19 6 10 1006.0 1005.8 12.4
26/05:00am 12.9 11.6 12.4 97 0.3 WNW 11 17 6 9 1005.7 1005.5 12.0
26/04:30am 13.3 12.4 12.5 95 0.4 NW 9 13 5 7 1005.8 1005.6 11.4
26/04:00am 13.1 11.9 12.8 98 0.2 NW 11 15 6 8 1006.2 1006.0 11.4
26/03:30am 13.0 11.8 12.7 98 0.2 NW 11 15 6 8 1006.5 1006.4 11.4
26/03:00am 13.2 12.0 12.7 97 0.3 NNW 11 19 6 10 1006.7 1006.6 11.4
26/02:30am 13.7 12.5 12.9 95 0.4 NW 11 15 6 8 1007.0 1006.8 11.4
26/02:00am 13.7 13.0 13.1 96 0.3 NW 9 13 5 7 1007.3 1007.1 11.4
26/01:30am 13.7 13.3 12.9 95 0.4 NW 7 9 4 5 1007.3 1007.1 11.4
26/01:00am 13.8 13.0 12.9 94 0.5 WNW 9 17 5 9 1007.4 1007.2 11.4
26/12:30am 14.5 10.7 12.5 88 1.1 WNW 24 35 13 19 1007.6 1007.4 10.8
26/12:00am 15.0 14.1 12.7 86 1.3 NW 9 24 5 13 1007.7 1007.5 10.8
 
Date/Time
EST
Temp
°C
App
Temp
°C
Dew
Point
°C
Rel
Hum
%
Delta-T
°C
Wind Press
QNH
hPa
Press
MSL
hPa
Rain since
9am
mm
Dir  Spd
km/h
Gust
km/h
Spd
kts
Gust
kts
25/11:30pm 14.8 13.9 12.7 87 1.2 NW 9 13 5 7 1007.8 1007.6 10.8
25/11:00pm 14.4 13.9 12.6 89 1.0 NNW 7 11 4 6 1007.8 1007.6 10.8
25/10:30pm 15.3 14.5 12.8 85 1.4 NW 9 15 5 8 1008.2 1008.0 10.8
25/10:00pm 15.4 14.7 13.2 87 1.2 NW 9 15 5 8 1008.1 1007.9 10.8
25/09:30pm 15.3 14.7 13.5 89 1.0 NW 9 13 5 7 1008.3 1008.1 10.8
25/09:00pm 15.2 15.2 13.7 91 0.8 NW 6 9 3 5 1008.0 1007.8 10.8
25/08:30pm 15.3 15.3 13.5 89 1.0 NW 6 7 3 4 1008.1 1007.9 10.8
25/08:00pm 16.0 15.8 13.7 86 1.3 WNW 7 9 4 5 1008.1 1007.9 10.8
25/07:30pm 16.6 16.2 14.1 85 1.4 WNW 9 13 5 7 1008.1 1007.9 10.8
25/07:00pm 17.0 15.9 14.3 84 1.6 WNW 13 19 7 10 1008.0 1007.8 10.8
25/06:30pm 16.8 17.0 14.6 87 1.3 WNW 7 13 4 7 1007.7 1007.5 10.8
25/06:00pm 17.3 16.8 14.8 85 1.5 WNW 11 15 6 8 1007.5 1007.3 10.8
25/05:30pm 17.5 17.1 15.3 87 1.3 W 11 15 6 8 1007.4 1007.2 10.8
25/05:00pm 18.1 17.3 15.2 83 1.7 W 13 19 7 10 1007.3 1007.1 10.8
25/04:30pm 18.3 16.2 16.1 87 1.3 W 22 35 12 19 1007.0 1006.8 10.8
25/04:00pm 16.8 12.5 14.4 86 1.4 WSW 30 39 16 21 1007.1 1006.9 10.4
25/03:30pm 20.7 18.5 14.8 69 3.5 W 20 33 11 18 1006.7 1006.6 9.8
25/03:00pm 20.3 17.6 15.7 75 2.8 W 24 30 13 16 1006.7 1006.6 9.8
25/02:30pm 21.1 19.5 16.5 75 2.8 WNW 20 35 11 19 1006.7 1006.6 9.8
25/02:00pm 20.8 19.7 16.4 76 2.7 WNW 17 30 9 16 1006.9 1006.7 9.8
25/01:30pm 20.4 18.8 16.4 78 2.4 WNW 20 32 11 17 1007.2 1007.0 9.8
25/01:00pm 19.4 18.2 17.0 86 1.5 W 19 30 10 16 1007.6 1007.4 9.8
25/12:30pm 18.4 17.0 17.1 92 0.8 W 20 26 11 14 1008.0 1007.8 9.8
25/12:00pm 17.8 18.2 17.3 97 0.3 W 11 17 6 9 1008.2 1008.0 9.8
25/11:30am 17.0 17.7 17.0 100 0.0 WNW 9 17 5 9 1008.8 1008.6 9.8
25/11:00am 16.3 16.3 16.3 100 0.0 W 11 15 6 8 1009.2 1009.0 9.8
25/10:30am 16.5 17.4 16.5 100 0.0 W 7 11 4 6 1009.2 1009.0 8.8
25/10:00am 16.3 17.7 16.3 100 0.0 SW 4 6 2 3 1009.3 1009.1 8.2
25/09:30am 16.4 17.2 16.4 100 0.0 WNW 7 15 4 8 1009.5 1009.3 7.0
25/09:00am 16.9 17.2 16.9 100 0.0 N 11 13 6 7 1009.3 1009.1 10.8
25/08:30am 16.9 18.1 16.9 100 0.0 N 6 7 3 4 1009.6 1009.4 9.8
25/08:00am 16.9 18.1 16.9 100 0.0 NNE 6 7 3 4 1009.4 1009.2 9.2
25/07:30am 16.9 18.1 16.9 100 0.0 NNE 6 7 3 4 1009.6 1009.4 8.2
25/07:00am 16.9 18.1 16.9 100 0.0 N 6 6 3 3 1009.6 1009.4 7.4
25/06:30am 16.9 18.1 16.9 100 0.0 NNW 6 7 3 4 1009.9 1009.7 6.8
25/06:00am 16.9 17.9 16.9 100 0.0 N 7 11 4 6 1009.9 1009.7 6.2
25/05:30am 16.9 17.5 16.9 100 0.0 N 9 11 5 6 1010.0 1009.8 6.2
25/05:00am 16.9 17.2 16.9 100 0.0 NNW 11 17 6 9 1010.0 1009.8 5.8
25/04:30am 16.7 16.1 16.7 100 0.0 NNW 15 22 8 12 1010.2 1010.0 5.0
25/04:00am 17.1 16.8 16.5 96 0.4 NNW 13 22 7 12 1010.2 1010.0 1.8
25/03:30am 16.8 17.7 16.5 98 0.2 N 7 9 4 5 1010.2 1010.0 1.6
25/03:00am 16.8 17.8 16.3 97 0.3 NE 6 9 3 5 1010.3 1010.1 0.8
25/02:30am 17.1 18.0 16.5 96 0.4 NE 7 9 4 5 1010.7 1010.5 0.8
25/02:00am 17.1 18.0 16.5 96 0.4 NE 7 9 4 5 1011.1 1010.9 0.8
25/01:30am 17.2 17.7 16.6 96 0.4 N 9 13 5 7 1011.7 1011.5 0.8
25/01:00am 18.3 17.4 15.9 86 1.4 N 15 20 8 11 1012.5 1012.3 0.0
25/12:30am 18.8 18.3 15.9 83 1.7 N 13 17 7 9 1012.6 1012.4 0.0
25/12:00am 18.6 17.3 15.7 83 1.7 N 17 22 9 12 1012.9 1012.7 0.0
 
Date/Time
EST
Temp
°C
App
Temp
°C
Dew
Point
°C
Rel
Hum
%
Delta-T
°C
Wind Press
QNH
hPa
Press
MSL
hPa
Rain since
9am
mm
Dir  Spd
km/h
Gust
km/h
Spd
kts
Gust
kts
24/11:30pm 18.8 17.9 14.9 78 2.3 NNE 13 17 7 9 1013.3 1013.2 0.0
24/11:00pm 18.5 17.9 14.6 78 2.3 NNE 11 15 6 8 1013.5 1013.4 0.0
24/10:30pm 18.2 17.6 14.7 80 2.0 NE 11 15 6 8 1013.8 1013.7 0.0
24/10:00pm 18.3 18.7 15.2 82 1.8 NE 7 9 4 5 1014.5 1014.4 0.0
24/09:30pm 17.8 18.2 15.2 85 1.5 NE 7 11 4 6 1014.8 1014.7 0.0
24/09:00pm 18.3 18.8 15.6 84 1.6 NE 7 11 4 6 1014.7 1014.6 0.0
24/08:30pm 18.7 19.4 16.1 85 1.6 ENE 7 11 4 6 1014.7 1014.6 0.0
24/08:00pm 19.0 18.9 16.0 83 1.8 ENE 11 13 6 7 1015.0 1014.8 0.0
24/07:30pm 19.3 18.8 16.0 81 2.0 ENE 13 15 7 8 1015.0 1014.8 0.0
24/07:00pm 19.6 19.2 16.3 81 2.0 ENE 13 15 7 8 1015.1 1014.9 0.0
24/06:30pm 20.5 20.4 15.9 75 2.8 ENE 11 13 6 7 1015.2 1015.0 0.0
24/06:00pm 20.9 20.8 16.1 74 2.9 E 11 13 6 7 1015.2 1015.0 0.0
24/05:30pm 21.8 22.9 16.5 72 3.2 ENE 6 7 3 4 1015.3 1015.1 0.0
24/05:00pm 23.1 23.7 15.2 61 4.7 NNE 6 7 3 4 1015.3 1015.1 0.0
24/04:30pm 23.9 24.2 14.9 57 5.4 NNE 7 11 4 6 1015.2 1015.0 0.0
24/04:00pm 24.0 24.1 14.4 55 5.7 NE 7 11 4 6 1015.4 1015.2 0.0
24/03:30pm 24.6 24.3 14.4 53 6.1 NNE 9 17 5 9 1015.8 1015.6 0.0
24/03:00pm 24.2 23.6 14.6 55 5.7 NNE 11 15 6 8 1016.2 1016.0 0.0
24/02:30pm 24.8 25.1 15.1 54 5.9 NNE 7 13 4 7 1016.5 1016.3 0.0
24/02:00pm 24.0 23.7 14.4 55 5.7 ENE 9 13 5 7 1016.8 1016.6 0.0
24/01:30pm 24.6 25.0 15.2 55 5.7 ENE 7 11 4 6 1017.2 1017.0 0.0
24/01:00pm 24.2 23.8 15.1 56 5.5 ENE 11 17 6 9 1017.6 1017.4 0.0
24/12:30pm 24.1 24.2 16.6 63 4.6 ENE 11 17 6 9 1018.3 1018.1 0.0
24/12:00pm 23.1 23.1 16.2 65 4.2 ENE 11 15 6 8 1018.9 1018.7 0.0
24/11:30am 22.2 22.2 16.2 69 3.6 ENE 11 17 6 9 1019.6 1019.4 0.0
24/11:00am 21.1 21.5 16.3 74 2.9 ENE 9 13 5 7 1020.2 1020.1 0.0
24/10:30am 19.9 19.7 15.7 77 2.5 ENE 11 17 6 9 1020.8 1020.7 0.0
24/10:00am 18.6 18.2 15.1 80 2.1 ENE 11 15 6 8 1021.2 1021.1 0.0
24/09:30am 18.2 17.7 16.0 87 1.3 E 13 17 7 9 1021.3 1021.2 0.0
24/09:00am 16.4 15.5 14.9 91 0.9 E 13 17 7 9 1021.4 1021.3 0.2
24/08:30am 15.5 15.4 14.9 96 0.3 E 9 13 5 7 1021.6 1021.5 0.2
24/08:00am 14.2 14.1 13.9 98 0.2 ESE 7 9 4 5 1021.5 1021.4 0.2
24/07:30am 13.8 13.9 13.8 100 0.0 E 6 9 3 5 1021.4 1021.3 0.2
24/07:00am 12.0 11.5 12.0 100 0.0 E 6 6 3 3 1021.2 1021.1 0.2
24/06:30am 12.2 12.1 12.2 100 0.0 E 4 6 2 3 1021.2 1021.1 0.2
24/06:00am 12.4 12.4 12.4 100 0.0 ESE 4 6 2 3 1021.0 1020.9 0.2
24/05:30am 12.8 12.9 12.8 100 0.0 SE 4 6 2 3 1020.7 1020.6 0.2
24/05:00am 13.0 13.2 13.0 100 0.0 ESE 4 6 2 3 1020.6 1020.5 0.2
24/04:30am 12.9 12.7 12.9 100 0.0 ESE 6 7 3 4 1020.6 1020.5 0.2
24/04:00am 12.9 13.4 12.9 100 0.0 E 2 4 1 2 1020.6 1020.5 0.2
24/03:30am 13.1 13.3 13.1 100 0.0 ESE 4 6 2 3 1020.6 1020.5 0.2
24/03:00am 13.1 12.9 13.1 100 0.0 SE 6 7 3 4 1020.5 1020.4 0.2
24/02:30am 13.0 13.2 13.0 100 0.0 ESE 4 7 2 4 1020.9 1020.8 0.2
24/02:00am 13.1 13.7 13.1 100 0.0 SE 2 6 1 3 1021.1 1021.0 0.2
24/01:30am 13.2 13.8 13.2 100 0.0 SSE 2 4 1 2 1021.3 1021.2 0.2
24/01:00am 13.4 13.7 13.4 100 0.0 ESE 4 6 2 3 1021.3 1021.2 0.2
24/12:30am 13.6 13.9 13.4 99 0.1 ESE 4 6 2 3 1021.5 1021.4 0.2
24/12:00am 14.3 14.2 14.0 98 0.2 E 7 9 4 5 1021.6 1021.5 0.2
 
Date/Time
EST
Temp
°C
App
Temp
°C
Dew
Point
°C
Rel
Hum
%
Delta-T
°C
Wind Press
QNH
hPa
Press
MSL
hPa
Rain since
9am
mm
Dir  Spd
km/h
Gust
km/h
Spd
kts
Gust
kts
23/11:30pm 14.2 14.1 14.0 99 0.1 ENE 7 9 4 5 1022.0 1021.9 0.2
23/11:00pm 13.9 13.9 13.6 98 0.2 ENE 6 7 3 4 1022.2 1022.1 0.2
23/10:30pm 13.8 14.2 13.6 99 0.1 SSW 4 6 2 3 1022.3 1022.2 0.2
23/10:00pm 14.3 15.2 14.0 98 0.2 S 2 4 1 2 1022.3 1022.2 0.2
23/09:30pm 14.6 14.8 14.3 98 0.2 S 6 6 3 3 1022.4 1022.3 0.2
23/09:00pm 14.9 15.5 14.3 96 0.3 SSE 4 6 2 3 1022.4 1022.3 0.2
23/08:30pm 15.5 16.2 14.5 94 0.6 SSE 4 4 2 2 1022.3 1022.2 0.2
23/08:00pm 16.5 17.2 14.5 88 1.1 SSE 4 4 2 2 1022.3 1022.2 0.2
23/07:30pm 17.9 18.8 15.0 83 1.7 SE 4 6 2 3 1022.2 1022.1 0.2
23/07:00pm 18.1 19.0 15.2 83 1.7 SE 4 6 2 3 1022.1 1022.0 0.2
23/06:30pm 19.0 19.5 15.1 78 2.3 SE 6 6 3 3 1021.8 1021.7 0.2
23/06:00pm 20.0 21.6 16.0 78 2.4 SSE 2 4 1 2 1021.7 1021.6 0.2
23/05:30pm 21.2 23.1 16.6 75 2.8 SSE 2 4 1 2 1021.6 1021.5 0.2
23/05:00pm 21.6 22.9 16.1 71 3.3 S 4 6 2 3 1021.4 1021.3 0.2
23/04:30pm 22.6 23.5 15.2 63 4.4 SSE 4 6 2 3 1021.2 1021.1 0.2

Other Formats:

Comma delimited format used in spreadsheet applications
http://www.bom.gov.au/fwo/IDN60801/IDN60801.94862.axf

JavaScript Object Notation format (JSON) in row-major order
http://www.bom.gov.au/fwo/IDN60801/IDN60801.94862.json